sensor_id;sensor_type;location;lat;lon;timestamp;P1;durP1;ratioP1;P2;durP2;ratioP2
39874;SDS011;25547;52.530;13.194;2023-02-07T00:01:26;29.30;;;14.43;;
39874;SDS011;25547;52.530;13.194;2023-02-07T00:03:55;30.05;;;14.60;;
39874;SDS011;25547;52.530;13.194;2023-02-07T00:06:25;26.83;;;14.07;;
39874;SDS011;25547;52.530;13.194;2023-02-07T00:08:53;31.75;;;13.05;;
39874;SDS011;25547;52.530;13.194;2023-02-07T00:11:20;30.33;;;12.73;;
39874;SDS011;25547;52.530;13.194;2023-02-07T00:13:49;34.60;;;14.90;;
39874;SDS011;25547;52.530;13.194;2023-02-07T00:16:17;30.90;;;14.05;;
39874;SDS011;25547;52.530;13.194;2023-02-07T00:18:43;34.33;;;15.13;;
39874;SDS011;25547;52.530;13.194;2023-02-07T00:21:10;32.78;;;14.02;;
39874;SDS011;25547;52.530;13.194;2023-02-07T00:23:43;26.77;;;12.98;;
39874;SDS011;25547;52.530;13.194;2023-02-07T00:26:12;28.77;;;13.55;;
39874;SDS011;25547;52.530;13.194;2023-02-07T00:28:39;28.70;;;13.07;;
39874;SDS011;25547;52.530;13.194;2023-02-07T00:33:33;32.22;;;13.88;;
39874;SDS011;25547;52.530;13.194;2023-02-07T00:36:02;33.25;;;13.95;;
39874;SDS011;25547;52.530;13.194;2023-02-07T00:38:30;31.98;;;14.60;;
39874;SDS011;25547;52.530;13.194;2023-02-07T00:40:58;32.25;;;14.05;;
39874;SDS011;25547;52.530;13.194;2023-02-07T00:43:25;36.25;;;15.50;;
39874;SDS011;25547;52.530;13.194;2023-02-07T00:45:51;39.22;;;15.85;;
39874;SDS011;25547;52.530;13.194;2023-02-07T00:48:17;32.33;;;16.00;;
39874;SDS011;25547;52.530;13.194;2023-02-07T00:50:50;42.03;;;18.45;;
39874;SDS011;25547;52.530;13.194;2023-02-07T00:53:18;40.70;;;18.07;;
39874;SDS011;25547;52.530;13.194;2023-02-07T00:55:43;35.78;;;16.15;;
39874;SDS011;25547;52.530;13.194;2023-02-07T00:58:09;42.45;;;19.35;;
39874;SDS011;25547;52.530;13.194;2023-02-07T01:00:35;49.40;;;20.45;;
39874;SDS011;25547;52.530;13.194;2023-02-07T01:03:05;41.03;;;18.05;;
39874;SDS011;25547;52.530;13.194;2023-02-07T01:05:30;44.42;;;19.02;;
39874;SDS011;25547;52.530;13.194;2023-02-07T01:07:56;44.22;;;17.95;;
39874;SDS011;25547;52.530;13.194;2023-02-07T01:10:22;40.45;;;20.70;;
39874;SDS011;25547;52.530;13.194;2023-02-07T01:12:48;42.10;;;19.20;;
39874;SDS011;25547;52.530;13.194;2023-02-07T01:15:15;39.20;;;18.48;;
39874;SDS011;25547;52.530;13.194;2023-02-07T01:17:43;48.45;;;20.65;;
39874;SDS011;25547;52.530;13.194;2023-02-07T01:20:09;40.88;;;19.45;;
39874;SDS011;25547;52.530;13.194;2023-02-07T01:22:36;39.08;;;17.95;;
39874;SDS011;25547;52.530;13.194;2023-02-07T01:25:03;38.92;;;19.00;;
39874;SDS011;25547;52.530;13.194;2023-02-07T01:27:31;42.38;;;19.00;;
39874;SDS011;25547;52.530;13.194;2023-02-07T01:29:57;39.28;;;16.05;;
39874;SDS011;25547;52.530;13.194;2023-02-07T01:32:23;42.50;;;18.92;;
39874;SDS011;25547;52.530;13.194;2023-02-07T01:34:49;34.42;;;14.60;;
39874;SDS011;25547;52.530;13.194;2023-02-07T01:37:14;36.53;;;16.90;;
39874;SDS011;25547;52.530;13.194;2023-02-07T01:39:40;31.77;;;15.98;;
39874;SDS011;25547;52.530;13.194;2023-02-07T01:42:13;27.88;;;12.07;;
39874;SDS011;25547;52.530;13.194;2023-02-07T01:47:06;41.90;;;17.20;;
39874;SDS011;25547;52.530;13.194;2023-02-07T01:49:41;38.95;;;14.95;;
39874;SDS011;25547;52.530;13.194;2023-02-07T01:52:09;29.70;;;14.40;;
39874;SDS011;25547;52.530;13.194;2023-02-07T01:54:40;37.28;;;16.17;;
39874;SDS011;25547;52.530;13.194;2023-02-07T01:57:10;34.90;;;17.10;;
39874;SDS011;25547;52.530;13.194;2023-02-07T01:59:40;39.97;;;16.80;;
39874;SDS011;25547;52.530;13.194;2023-02-07T02:02:08;38.50;;;16.85;;
39874;SDS011;25547;52.530;13.194;2023-02-07T02:04:36;28.30;;;14.68;;
39874;SDS011;25547;52.530;13.194;2023-02-07T02:07:03;36.05;;;16.00;;
39874;SDS011;25547;52.530;13.194;2023-02-07T02:09:34;39.67;;;15.52;;
39874;SDS011;25547;52.530;13.194;2023-02-07T02:42:41;33.95;;;17.17;;
39874;SDS011;25547;52.530;13.194;2023-02-07T02:45:34;41.40;;;17.17;;
39874;SDS011;25547;52.530;13.194;2023-02-07T02:48:13;37.13;;;17.70;;
39874;SDS011;25547;52.530;13.194;2023-02-07T02:50:43;38.28;;;18.08;;
39874;SDS011;25547;52.530;13.194;2023-02-07T02:53:14;42.80;;;18.77;;
39874;SDS011;25547;52.530;13.194;2023-02-07T03:14:33;36.30;;;16.23;;
39874;SDS011;25547;52.530;13.194;2023-02-07T03:17:19;33.50;;;17.15;;
39874;SDS011;25547;52.530;13.194;2023-02-07T03:20:09;39.72;;;15.70;;
39874;SDS011;25547;52.530;13.194;2023-02-07T03:22:43;34.22;;;16.88;;
39874;SDS011;25547;52.530;13.194;2023-02-07T03:25:13;40.10;;;15.82;;
39874;SDS011;25547;52.530;13.194;2023-02-07T03:27:44;38.83;;;17.85;;
39874;SDS011;25547;52.530;13.194;2023-02-07T03:30:14;35.42;;;16.05;;
39874;SDS011;25547;52.530;13.194;2023-02-07T03:32:50;36.72;;;17.27;;
39874;SDS011;25547;52.530;13.194;2023-02-07T03:37:52;41.53;;;18.50;;
39874;SDS011;25547;52.530;13.194;2023-02-07T03:40:20;36.40;;;15.35;;
39874;SDS011;25547;52.530;13.194;2023-02-07T03:42:57;32.95;;;15.02;;
39874;SDS011;25547;52.530;13.194;2023-02-07T03:45:28;34.95;;;15.63;;
39874;SDS011;25547;52.530;13.194;2023-02-07T03:47:57;41.92;;;16.80;;
39874;SDS011;25547;52.530;13.194;2023-02-07T03:50:22;33.35;;;13.85;;
39874;SDS011;25547;52.530;13.194;2023-02-07T03:52:48;31.88;;;13.90;;
39874;SDS011;25547;52.530;13.194;2023-02-07T03:55:16;30.08;;;13.80;;
39874;SDS011;25547;52.530;13.194;2023-02-07T03:57:44;33.45;;;14.57;;
39874;SDS011;25547;52.530;13.194;2023-02-07T04:00:10;35.22;;;13.35;;
39874;SDS011;25547;52.530;13.194;2023-02-07T04:02:36;32.55;;;14.25;;
39874;SDS011;25547;52.530;13.194;2023-02-07T04:05:04;31.42;;;15.30;;
39874;SDS011;25547;52.530;13.194;2023-02-07T04:07:32;36.92;;;14.45;;
39874;SDS011;25547;52.530;13.194;2023-02-07T04:09:58;29.15;;;13.23;;
39874;SDS011;25547;52.530;13.194;2023-02-07T04:12:24;34.55;;;13.85;;
39874;SDS011;25547;52.530;13.194;2023-02-07T04:14:56;35.13;;;12.93;;
39874;SDS011;25547;52.530;13.194;2023-02-07T04:17:26;34.28;;;14.40;;
39874;SDS011;25547;52.530;13.194;2023-02-07T04:19:52;29.83;;;13.02;;
39874;SDS011;25547;52.530;13.194;2023-02-07T04:22:20;29.05;;;13.00;;
39874;SDS011;25547;52.530;13.194;2023-02-07T04:24:46;33.95;;;14.70;;
39874;SDS011;25547;52.530;13.194;2023-02-07T04:27:14;29.23;;;11.82;;
39874;SDS011;25547;52.530;13.194;2023-02-07T04:29:42;26.23;;;11.82;;
39874;SDS011;25547;52.530;13.194;2023-02-07T04:32:07;24.55;;;12.40;;
39874;SDS011;25547;52.530;13.194;2023-02-07T04:34:33;23.92;;;12.60;;
39874;SDS011;25547;52.530;13.194;2023-02-07T04:36:59;31.60;;;11.95;;
39874;SDS011;25547;52.530;13.194;2023-02-07T04:39:24;30.42;;;11.82;;
39874;SDS011;25547;52.530;13.194;2023-02-07T04:41:53;29.52;;;14.00;;
39874;SDS011;25547;52.530;13.194;2023-02-07T04:44:19;28.63;;;13.27;;
39874;SDS011;25547;52.530;13.194;2023-02-07T04:46:47;25.00;;;12.82;;
39874;SDS011;25547;52.530;13.194;2023-02-07T04:49:12;26.00;;;12.02;;
39874;SDS011;25547;52.530;13.194;2023-02-07T04:51:38;28.40;;;13.25;;
39874;SDS011;25547;52.530;13.194;2023-02-07T04:54:04;27.50;;;12.23;;
39874;SDS011;25547;52.530;13.194;2023-02-07T04:56:29;29.08;;;13.70;;
39874;SDS011;25547;52.530;13.194;2023-02-07T04:58:57;28.45;;;11.80;;
39874;SDS011;25547;52.530;13.194;2023-02-07T05:01:23;26.95;;;11.85;;
39874;SDS011;25547;52.530;13.194;2023-02-07T05:03:49;33.20;;;15.18;;
39874;SDS011;25547;52.530;13.194;2023-02-07T05:06:14;30.63;;;12.07;;
39874;SDS011;25547;52.530;13.194;2023-02-07T05:08:42;25.60;;;11.73;;
39874;SDS011;25547;52.530;13.194;2023-02-07T05:11:08;23.48;;;10.30;;
39874;SDS011;25547;52.530;13.194;2023-02-07T05:13:34;22.60;;;10.90;;
39874;SDS011;25547;52.530;13.194;2023-02-07T05:16:02;22.25;;;10.82;;
39874;SDS011;25547;52.530;13.194;2023-02-07T05:18:28;23.13;;;11.32;;
39874;SDS011;25547;52.530;13.194;2023-02-07T05:20:57;30.60;;;12.18;;
39874;SDS011;25547;52.530;13.194;2023-02-07T05:23:25;32.10;;;11.88;;
39874;SDS011;25547;52.530;13.194;2023-02-07T05:25:50;32.55;;;12.10;;
39874;SDS011;25547;52.530;13.194;2023-02-07T05:28:16;30.20;;;14.48;;
39874;SDS011;25547;52.530;13.194;2023-02-07T05:30:44;24.17;;;11.70;;
39874;SDS011;25547;52.530;13.194;2023-02-07T05:33:10;25.27;;;11.80;;
39874;SDS011;25547;52.530;13.194;2023-02-07T05:38:10;24.50;;;11.38;;
39874;SDS011;25547;52.530;13.194;2023-02-07T05:40:38;25.15;;;11.68;;
39874;SDS011;25547;52.530;13.194;2023-02-07T05:43:07;22.67;;;10.68;;
39874;SDS011;25547;52.530;13.194;2023-02-07T05:45:38;31.10;;;12.35;;
39874;SDS011;25547;52.530;13.194;2023-02-07T05:48:04;32.45;;;10.98;;
39874;SDS011;25547;52.530;13.194;2023-02-07T05:50:31;32.58;;;12.48;;
39874;SDS011;25547;52.530;13.194;2023-02-07T05:52:59;27.42;;;12.43;;
39874;SDS011;25547;52.530;13.194;2023-02-07T05:55:25;22.45;;;10.75;;
39874;SDS011;25547;52.530;13.194;2023-02-07T05:57:51;29.92;;;12.23;;
39874;SDS011;25547;52.530;13.194;2023-02-07T06:00:19;26.70;;;11.38;;
39874;SDS011;25547;52.530;13.194;2023-02-07T06:02:44;26.65;;;11.00;;
39874;SDS011;25547;52.530;13.194;2023-02-07T06:05:11;25.55;;;11.10;;
39874;SDS011;25547;52.530;13.194;2023-02-07T06:07:41;29.50;;;12.07;;
39874;SDS011;25547;52.530;13.194;2023-02-07T06:10:08;29.73;;;12.38;;
39874;SDS011;25547;52.530;13.194;2023-02-07T06:12:37;27.67;;;11.18;;
39874;SDS011;25547;52.530;13.194;2023-02-07T06:15:05;33.85;;;14.40;;
39874;SDS011;25547;52.530;13.194;2023-02-07T06:17:31;25.40;;;12.93;;
39874;SDS011;25547;52.530;13.194;2023-02-07T06:20:00;37.55;;;13.70;;
39874;SDS011;25547;52.530;13.194;2023-02-07T06:22:26;31.38;;;13.30;;
39874;SDS011;25547;52.530;13.194;2023-02-07T06:24:51;41.72;;;14.63;;
39874;SDS011;25547;52.530;13.194;2023-02-07T06:27:17;38.35;;;13.45;;
39874;SDS011;25547;52.530;13.194;2023-02-07T06:29:43;29.23;;;12.63;;
39874;SDS011;25547;52.530;13.194;2023-02-07T06:32:08;35.10;;;14.20;;
39874;SDS011;25547;52.530;13.194;2023-02-07T06:34:34;31.35;;;13.52;;
39874;SDS011;25547;52.530;13.194;2023-02-07T06:37:02;30.85;;;14.23;;
39874;SDS011;25547;52.530;13.194;2023-02-07T06:39:27;37.10;;;15.50;;
39874;SDS011;25547;52.530;13.194;2023-02-07T06:41:53;32.33;;;14.98;;
39874;SDS011;25547;52.530;13.194;2023-02-07T06:44:21;32.35;;;15.25;;
39874;SDS011;25547;52.530;13.194;2023-02-07T06:46:47;30.92;;;14.25;;
39874;SDS011;25547;52.530;13.194;2023-02-07T06:49:13;41.90;;;15.80;;
39874;SDS011;25547;52.530;13.194;2023-02-07T06:51:38;36.50;;;15.63;;
39874;SDS011;25547;52.530;13.194;2023-02-07T06:54:06;34.80;;;14.73;;
39874;SDS011;25547;52.530;13.194;2023-02-07T06:56:33;38.88;;;16.42;;
39874;SDS011;25547;52.530;13.194;2023-02-07T06:58:59;34.53;;;15.70;;
39874;SDS011;25547;52.530;13.194;2023-02-07T07:01:27;33.88;;;14.60;;
39874;SDS011;25547;52.530;13.194;2023-02-07T07:03:58;32.25;;;14.18;;
39874;SDS011;25547;52.530;13.194;2023-02-07T07:06:23;45.00;;;15.48;;
39874;SDS011;25547;52.530;13.194;2023-02-07T07:08:49;34.92;;;15.75;;
39874;SDS011;25547;52.530;13.194;2023-02-07T07:11:15;29.60;;;13.13;;
39874;SDS011;25547;52.530;13.194;2023-02-07T07:13:44;26.45;;;13.55;;
39874;SDS011;25547;52.530;13.194;2023-02-07T07:16:09;27.23;;;13.02;;
39874;SDS011;25547;52.530;13.194;2023-02-07T07:18:35;31.67;;;13.05;;
39874;SDS011;25547;52.530;13.194;2023-02-07T07:21:03;28.80;;;12.55;;
39874;SDS011;25547;52.530;13.194;2023-02-07T07:23:29;30.90;;;13.07;;
39874;SDS011;25547;52.530;13.194;2023-02-07T07:25:57;28.73;;;14.38;;
39874;SDS011;25547;52.530;13.194;2023-02-07T07:28:23;28.98;;;14.48;;
39874;SDS011;25547;52.530;13.194;2023-02-07T07:30:49;25.95;;;12.07;;
39874;SDS011;25547;52.530;13.194;2023-02-07T07:33:14;31.35;;;12.77;;
39874;SDS011;25547;52.530;13.194;2023-02-07T07:35:40;34.10;;;12.55;;
39874;SDS011;25547;52.530;13.194;2023-02-07T07:38:05;30.50;;;13.32;;
39874;SDS011;25547;52.530;13.194;2023-02-07T07:40:31;28.55;;;13.48;;
39874;SDS011;25547;52.530;13.194;2023-02-07T07:42:59;26.67;;;12.48;;
39874;SDS011;25547;52.530;13.194;2023-02-07T07:45:25;26.45;;;11.27;;
39874;SDS011;25547;52.530;13.194;2023-02-07T07:47:50;28.42;;;11.18;;
39874;SDS011;25547;52.530;13.194;2023-02-07T07:50:16;27.40;;;13.70;;
39874;SDS011;25547;52.530;13.194;2023-02-07T07:52:42;31.45;;;12.57;;
39874;SDS011;25547;52.530;13.194;2023-02-07T07:55:08;25.70;;;12.25;;
39874;SDS011;25547;52.530;13.194;2023-02-07T07:57:36;28.23;;;12.27;;
39874;SDS011;25547;52.530;13.194;2023-02-07T08:00:02;25.13;;;12.50;;
39874;SDS011;25547;52.530;13.194;2023-02-07T08:02:28;24.15;;;11.60;;
39874;SDS011;25547;52.530;13.194;2023-02-07T08:04:54;23.23;;;11.40;;
39874;SDS011;25547;52.530;13.194;2023-02-07T08:07:22;21.15;;;11.15;;
39874;SDS011;25547;52.530;13.194;2023-02-07T08:09:50;24.88;;;12.07;;
39874;SDS011;25547;52.530;13.194;2023-02-07T08:12:18;31.53;;;13.07;;
39874;SDS011;25547;52.530;13.194;2023-02-07T08:14:44;25.45;;;12.55;;
39874;SDS011;25547;52.530;13.194;2023-02-07T08:17:10;31.33;;;13.18;;
39874;SDS011;25547;52.530;13.194;2023-02-07T08:19:35;21.63;;;12.27;;
39874;SDS011;25547;52.530;13.194;2023-02-07T08:22:04;24.73;;;11.27;;
39874;SDS011;25547;52.530;13.194;2023-02-07T08:24:30;27.33;;;11.93;;
39874;SDS011;25547;52.530;13.194;2023-02-07T08:26:58;27.05;;;12.05;;
39874;SDS011;25547;52.530;13.194;2023-02-07T08:29:26;24.30;;;11.55;;
39874;SDS011;25547;52.530;13.194;2023-02-07T08:31:54;24.08;;;11.25;;
39874;SDS011;25547;52.530;13.194;2023-02-07T08:34:20;25.52;;;10.98;;
39874;SDS011;25547;52.530;13.194;2023-02-07T08:36:50;24.47;;;12.07;;
39874;SDS011;25547;52.530;13.194;2023-02-07T08:39:16;28.17;;;13.43;;
39874;SDS011;25547;52.530;13.194;2023-02-07T08:41:42;24.30;;;13.20;;
39874;SDS011;25547;52.530;13.194;2023-02-07T08:44:08;26.30;;;13.05;;
39874;SDS011;25547;52.530;13.194;2023-02-07T08:46:33;24.73;;;12.70;;
39874;SDS011;25547;52.530;13.194;2023-02-07T08:48:59;27.30;;;12.43;;
39874;SDS011;25547;52.530;13.194;2023-02-07T08:51:25;25.95;;;12.10;;
39874;SDS011;25547;52.530;13.194;2023-02-07T08:53:53;26.65;;;12.98;;
39874;SDS011;25547;52.530;13.194;2023-02-07T08:56:20;29.02;;;12.38;;
39874;SDS011;25547;52.530;13.194;2023-02-07T08:58:46;26.35;;;11.48;;
39874;SDS011;25547;52.530;13.194;2023-02-07T09:01:12;19.75;;;10.23;;
39874;SDS011;25547;52.530;13.194;2023-02-07T09:03:37;29.92;;;10.98;;
39874;SDS011;25547;52.530;13.194;2023-02-07T09:06:05;21.73;;;10.65;;
39874;SDS011;25547;52.530;13.194;2023-02-07T09:08:34;22.60;;;10.30;;
39874;SDS011;25547;52.530;13.194;2023-02-07T09:11:00;26.35;;;11.75;;
39874;SDS011;25547;52.530;13.194;2023-02-07T09:13:26;27.85;;;10.93;;
39874;SDS011;25547;52.530;13.194;2023-02-07T09:15:55;22.75;;;11.00;;
39874;SDS011;25547;52.530;13.194;2023-02-07T09:18:22;24.02;;;10.68;;
39874;SDS011;25547;52.530;13.194;2023-02-07T09:20:49;25.92;;;13.75;;
39874;SDS011;25547;52.530;13.194;2023-02-07T09:23:17;25.35;;;11.68;;
39874;SDS011;25547;52.530;13.194;2023-02-07T09:25:49;22.23;;;11.65;;
39874;SDS011;25547;52.530;13.194;2023-02-07T09:28:17;25.02;;;12.18;;
39874;SDS011;25547;52.530;13.194;2023-02-07T09:30:43;21.50;;;11.05;;
39874;SDS011;25547;52.530;13.194;2023-02-07T09:33:11;24.92;;;12.50;;
39874;SDS011;25547;52.530;13.194;2023-02-07T09:35:38;34.42;;;13.88;;
39874;SDS011;25547;52.530;13.194;2023-02-07T09:40:39;22.33;;;10.00;;
39874;SDS011;25547;52.530;13.194;2023-02-07T09:46:24;26.70;;;11.27;;
39874;SDS011;25547;52.530;13.194;2023-02-07T09:51:59;24.52;;;10.20;;
39874;SDS011;25547;52.530;13.194;2023-02-07T09:54:29;23.52;;;8.75;;
39874;SDS011;25547;52.530;13.194;2023-02-07T09:57:02;26.50;;;10.13;;
39874;SDS011;25547;52.530;13.194;2023-02-07T09:59:48;21.10;;;9.18;;
39874;SDS011;25547;52.530;13.194;2023-02-07T10:04:59;24.08;;;10.00;;
39874;SDS011;25547;52.530;13.194;2023-02-07T10:07:30;22.73;;;9.60;;
39874;SDS011;25547;52.530;13.194;2023-02-07T10:09:57;24.10;;;11.10;;
39874;SDS011;25547;52.530;13.194;2023-02-07T10:12:35;20.45;;;8.98;;
39874;SDS011;25547;52.530;13.194;2023-02-07T10:15:31;21.83;;;10.00;;
39874;SDS011;25547;52.530;13.194;2023-02-07T10:20:55;23.63;;;9.32;;
39874;SDS011;25547;52.530;13.194;2023-02-07T10:31:42;19.60;;;8.88;;
39874;SDS011;25547;52.530;13.194;2023-02-07T10:34:13;16.85;;;8.02;;
39874;SDS011;25547;52.530;13.194;2023-02-07T10:36:43;20.52;;;9.82;;
39874;SDS011;25547;52.530;13.194;2023-02-07T10:39:14;20.50;;;8.88;;
39874;SDS011;25547;52.530;13.194;2023-02-07T10:41:52;19.10;;;8.98;;
39874;SDS011;25547;52.530;13.194;2023-02-07T10:44:21;20.45;;;8.65;;
39874;SDS011;25547;52.530;13.194;2023-02-07T10:46:52;21.25;;;9.52;;
39874;SDS011;25547;52.530;13.194;2023-02-07T10:49:24;19.90;;;8.55;;
39874;SDS011;25547;52.530;13.194;2023-02-07T10:51:54;19.85;;;7.82;;
39874;SDS011;25547;52.530;13.194;2023-02-07T10:54:21;16.35;;;6.88;;
39874;SDS011;25547;52.530;13.194;2023-02-07T10:56:49;19.55;;;8.30;;
39874;SDS011;25547;52.530;13.194;2023-02-07T10:59:37;20.88;;;9.40;;
39874;SDS011;25547;52.530;13.194;2023-02-07T11:04:57;14.50;;;5.50;;
39874;SDS011;25547;52.530;13.194;2023-02-07T11:07:24;22.67;;;7.47;;
39874;SDS011;25547;52.530;13.194;2023-02-07T11:09:50;13.77;;;6.15;;
39874;SDS011;25547;52.530;13.194;2023-02-07T11:12:20;16.38;;;7.45;;
39874;SDS011;25547;52.530;13.194;2023-02-07T11:17:28;17.40;;;6.25;;
39874;SDS011;25547;52.530;13.194;2023-02-07T11:19:55;16.15;;;7.78;;
39874;SDS011;25547;52.530;13.194;2023-02-07T11:22:21;19.02;;;7.22;;
39874;SDS011;25547;52.530;13.194;2023-02-07T11:24:49;14.93;;;7.45;;
39874;SDS011;25547;52.530;13.194;2023-02-07T11:27:18;16.33;;;6.30;;
39874;SDS011;25547;52.530;13.194;2023-02-07T11:29:54;19.35;;;8.63;;
39874;SDS011;25547;52.530;13.194;2023-02-07T11:32:23;16.65;;;7.28;;
39874;SDS011;25547;52.530;13.194;2023-02-07T11:39:52;14.57;;;5.93;;
39874;SDS011;25547;52.530;13.194;2023-02-07T11:42:24;13.48;;;6.10;;
39874;SDS011;25547;52.530;13.194;2023-02-07T11:44:55;14.13;;;6.88;;
39874;SDS011;25547;52.530;13.194;2023-02-07T11:47:24;16.45;;;6.07;;
39874;SDS011;25547;52.530;13.194;2023-02-07T11:49:54;15.48;;;6.57;;
39874;SDS011;25547;52.530;13.194;2023-02-07T11:52:22;16.83;;;6.18;;
39874;SDS011;25547;52.530;13.194;2023-02-07T11:54:50;17.63;;;7.47;;
39874;SDS011;25547;52.530;13.194;2023-02-07T11:57:19;16.88;;;6.63;;
39874;SDS011;25547;52.530;13.194;2023-02-07T11:59:53;18.83;;;7.18;;
39874;SDS011;25547;52.530;13.194;2023-02-07T12:02:31;20.75;;;8.43;;
39874;SDS011;25547;52.530;13.194;2023-02-07T12:07:52;15.38;;;6.32;;
39874;SDS011;25547;52.530;13.194;2023-02-07T12:10:28;13.27;;;6.60;;
39874;SDS011;25547;52.530;13.194;2023-02-07T12:13:10;16.25;;;7.93;;
39874;SDS011;25547;52.530;13.194;2023-02-07T12:15:44;15.43;;;5.82;;
39874;SDS011;25547;52.530;13.194;2023-02-07T12:26:51;13.13;;;5.60;;
39874;SDS011;25547;52.530;13.194;2023-02-07T12:32:19;14.38;;;7.43;;
39874;SDS011;25547;52.530;13.194;2023-02-07T12:35:27;13.00;;;5.32;;
39874;SDS011;25547;52.530;13.194;2023-02-07T12:38:20;11.95;;;4.80;;
39874;SDS011;25547;52.530;13.194;2023-02-07T12:41:01;13.23;;;5.00;;
39874;SDS011;25547;52.530;13.194;2023-02-07T12:59:55;13.30;;;5.47;;
39874;SDS011;25547;52.530;13.194;2023-02-07T13:03:01;11.52;;;5.20;;
39874;SDS011;25547;52.530;13.194;2023-02-07T13:16:46;14.48;;;4.78;;
39874;SDS011;25547;52.530;13.194;2023-02-07T13:19:47;15.55;;;5.60;;
39874;SDS011;25547;52.530;13.194;2023-02-07T13:22:39;9.80;;;4.13;;
39874;SDS011;25547;52.530;13.194;2023-02-07T13:25:15;10.10;;;4.22;;
39874;SDS011;25547;52.530;13.194;2023-02-07T13:27:46;8.75;;;3.70;;
39874;SDS011;25547;52.530;13.194;2023-02-07T13:30:16;14.30;;;5.70;;
39874;SDS011;25547;52.530;13.194;2023-02-07T13:32:43;17.45;;;6.15;;
39874;SDS011;25547;52.530;13.194;2023-02-07T13:35:11;10.77;;;4.72;;
39874;SDS011;25547;52.530;13.194;2023-02-07T13:37:47;13.75;;;6.80;;
39874;SDS011;25547;52.530;13.194;2023-02-07T13:40:35;8.50;;;3.33;;
39874;SDS011;25547;52.530;13.194;2023-02-07T13:46:11;10.38;;;4.25;;
39874;SDS011;25547;52.530;13.194;2023-02-07T13:49:04;10.75;;;4.38;;
39874;SDS011;25547;52.530;13.194;2023-02-07T13:57:03;9.95;;;3.63;;
39874;SDS011;25547;52.530;13.194;2023-02-07T14:02:44;8.52;;;3.63;;
39874;SDS011;25547;52.530;13.194;2023-02-07T14:05:24;20.63;;;5.38;;
39874;SDS011;25547;52.530;13.194;2023-02-07T14:07:54;14.82;;;5.85;;
39874;SDS011;25547;52.530;13.194;2023-02-07T14:10:55;14.73;;;5.55;;
39874;SDS011;25547;52.530;13.194;2023-02-07T14:13:28;13.65;;;6.47;;
39874;SDS011;25547;52.530;13.194;2023-02-07T14:18:44;11.65;;;4.65;;
39874;SDS011;25547;52.530;13.194;2023-02-07T14:26:41;11.75;;;5.15;;
39874;SDS011;25547;52.530;13.194;2023-02-07T14:31:58;15.05;;;5.45;;
39874;SDS011;25547;52.530;13.194;2023-02-07T14:34:30;12.90;;;5.30;;
39874;SDS011;25547;52.530;13.194;2023-02-07T14:40:06;14.50;;;5.30;;
39874;SDS011;25547;52.530;13.194;2023-02-07T14:42:50;10.02;;;4.90;;
39874;SDS011;25547;52.530;13.194;2023-02-07T14:45:21;11.45;;;4.97;;
39874;SDS011;25547;52.530;13.194;2023-02-07T14:47:47;11.40;;;4.07;;
39874;SDS011;25547;52.530;13.194;2023-02-07T14:50:24;11.82;;;4.55;;
39874;SDS011;25547;52.530;13.194;2023-02-07T14:52:57;13.57;;;4.75;;
39874;SDS011;25547;52.530;13.194;2023-02-07T14:55:50;13.10;;;4.47;;
39874;SDS011;25547;52.530;13.194;2023-02-07T14:58:26;16.45;;;5.38;;
39874;SDS011;25547;52.530;13.194;2023-02-07T15:01:02;10.88;;;4.55;;
39874;SDS011;25547;52.530;13.194;2023-02-07T15:03:40;12.35;;;5.75;;
39874;SDS011;25547;52.530;13.194;2023-02-07T15:06:16;11.35;;;4.82;;
39874;SDS011;25547;52.530;13.194;2023-02-07T15:08:54;10.73;;;4.82;;
39874;SDS011;25547;52.530;13.194;2023-02-07T15:11:21;12.20;;;5.82;;
39874;SDS011;25547;52.530;13.194;2023-02-07T15:13:50;12.75;;;5.25;;
39874;SDS011;25547;52.530;13.194;2023-02-07T15:16:21;11.60;;;4.18;;
39874;SDS011;25547;52.530;13.194;2023-02-07T15:21:44;11.98;;;5.03;;
39874;SDS011;25547;52.530;13.194;2023-02-07T15:26:57;13.70;;;6.05;;
39874;SDS011;25547;52.530;13.194;2023-02-07T15:29:26;13.95;;;5.57;;
39874;SDS011;25547;52.530;13.194;2023-02-07T15:31:54;12.60;;;5.07;;
39874;SDS011;25547;52.530;13.194;2023-02-07T15:34:25;13.30;;;5.88;;
39874;SDS011;25547;52.530;13.194;2023-02-07T15:36:59;12.93;;;7.00;;
39874;SDS011;25547;52.530;13.194;2023-02-07T15:39:36;14.88;;;7.03;;
39874;SDS011;25547;52.530;13.194;2023-02-07T15:42:02;13.60;;;6.05;;
39874;SDS011;25547;52.530;13.194;2023-02-07T15:44:29;13.00;;;5.82;;
39874;SDS011;25547;52.530;13.194;2023-02-07T15:49:35;12.35;;;5.63;;
39874;SDS011;25547;52.530;13.194;2023-02-07T15:52:14;12.40;;;5.20;;
39874;SDS011;25547;52.530;13.194;2023-02-07T15:59:51;16.27;;;7.60;;
39874;SDS011;25547;52.530;13.194;2023-02-07T16:02:27;12.32;;;5.25;;
39874;SDS011;25547;52.530;13.194;2023-02-07T16:04:56;16.23;;;6.45;;
39874;SDS011;25547;52.530;13.194;2023-02-07T16:07:25;14.98;;;7.25;;
39874;SDS011;25547;52.530;13.194;2023-02-07T16:12:29;9.63;;;5.15;;
39874;SDS011;25547;52.530;13.194;2023-02-07T16:14:56;14.35;;;5.63;;
39874;SDS011;25547;52.530;13.194;2023-02-07T16:17:24;14.32;;;5.20;;
39874;SDS011;25547;52.530;13.194;2023-02-07T16:20:01;15.20;;;6.38;;
39874;SDS011;25547;52.530;13.194;2023-02-07T16:22:29;12.93;;;5.40;;
39874;SDS011;25547;52.530;13.194;2023-02-07T16:25:00;15.80;;;5.82;;
39874;SDS011;25547;52.530;13.194;2023-02-07T16:27:27;13.60;;;5.68;;
39874;SDS011;25547;52.530;13.194;2023-02-07T16:29:58;17.85;;;6.65;;
39874;SDS011;25547;52.530;13.194;2023-02-07T16:32:30;12.77;;;5.78;;
39874;SDS011;25547;52.530;13.194;2023-02-07T16:34:57;12.55;;;5.68;;
39874;SDS011;25547;52.530;13.194;2023-02-07T16:37:26;14.48;;;5.25;;
39874;SDS011;25547;52.530;13.194;2023-02-07T16:39:52;14.18;;;5.97;;
39874;SDS011;25547;52.530;13.194;2023-02-07T16:42:20;10.70;;;5.80;;
39874;SDS011;25547;52.530;13.194;2023-02-07T16:44:46;15.70;;;6.68;;
39874;SDS011;25547;52.530;13.194;2023-02-07T16:47:12;14.45;;;6.10;;
39874;SDS011;25547;52.530;13.194;2023-02-07T16:49:40;11.73;;;5.35;;
39874;SDS011;25547;52.530;13.194;2023-02-07T16:52:09;11.73;;;5.55;;
39874;SDS011;25547;52.530;13.194;2023-02-07T16:54:40;13.52;;;6.20;;
39874;SDS011;25547;52.530;13.194;2023-02-07T16:57:05;18.80;;;6.78;;
39874;SDS011;25547;52.530;13.194;2023-02-07T16:59:34;14.23;;;5.90;;
39874;SDS011;25547;52.530;13.194;2023-02-07T17:01:59;14.25;;;6.53;;
39874;SDS011;25547;52.530;13.194;2023-02-07T17:04:34;10.70;;;5.38;;
39874;SDS011;25547;52.530;13.194;2023-02-07T17:07:02;16.02;;;5.90;;
39874;SDS011;25547;52.530;13.194;2023-02-07T17:09:28;15.43;;;6.18;;
39874;SDS011;25547;52.530;13.194;2023-02-07T17:11:54;20.33;;;7.55;;
39874;SDS011;25547;52.530;13.194;2023-02-07T17:14:19;12.95;;;5.50;;
39874;SDS011;25547;52.530;13.194;2023-02-07T17:16:45;18.58;;;7.35;;
39874;SDS011;25547;52.530;13.194;2023-02-07T17:19:15;19.00;;;8.05;;
39874;SDS011;25547;52.530;13.194;2023-02-07T17:24:09;18.20;;;6.90;;
39874;SDS011;25547;52.530;13.194;2023-02-07T17:26:35;15.32;;;6.65;;